Time,TemperatureF,DewpointF,PressureIn,WindDirection,WindDirectionDegrees,WindSpeedMPH,WindSpeedGustMPH,Humidity,HourlyPrecipIn,Conditions,Clouds,dailyrainin,SoftwareType,DateUTC
2013-02-02 00:00:00,34.2,20.1,30.14,SW,225,0.6,0.9,56,0.00,,,0.00,WUHU216HW,2013-02-02 08:00:00,
2013-02-02 00:05:00,34.2,20.1,30.14,SW,225,0.9,1.1,56,0.00,,,0.00,WUHU216HW,2013-02-02 08:05:00,
2013-02-02 00:10:00,34.0,19.9,30.14,SW,225,1.1,1.1,56,0.00,,,0.00,WUHU216HW,2013-02-02 08:10:00,
2013-02-02 00:16:00,33.8,19.7,30.14,SW,225,0.4,1.1,56,0.00,,,0.00,WUHU216HW,2013-02-02 08:16:00,
2013-02-02 00:21:00,33.7,20.0,30.14,SW,225,0.0,1.1,57,0.00,,,0.00,WUHU216HW,2013-02-02 08:21:00,
2013-02-02 00:26:00,33.5,19.8,30.14,SW,225,0.0,0.2,57,0.00,,,0.00,WUHU216HW,2013-02-02 08:26:00,
2013-02-02 00:31:00,33.5,19.8,30.14,SW,225,0.2,0.7,57,0.00,,,0.00,WUHU216HW,2013-02-02 08:31:00,
2013-02-02 00:36:00,33.5,19.8,30.14,SW,225,0.0,0.7,57,0.00,,,0.00,WUHU216HW,2013-02-02 08:36:00,
2013-02-02 00:41:00,33.5,20.3,30.14,SW,225,0.4,0.4,58,0.00,,,0.00,WUHU216HW,2013-02-02 08:41:00,
2013-02-02 00:46:00,33.3,20.1,30.14,SW,225,0.0,0.4,58,0.00,,,0.00,WUHU216HW,2013-02-02 08:46:00,
2013-02-02 00:51:00,33.3,20.1,30.14,SW,225,0.0,0.0,58,0.00,,,0.00,WUHU216HW,2013-02-02 08:51:00,
2013-02-02 00:56:00,33.1,20.3,30.14,SW,225,0.0,0.0,59,0.00,,,0.00,WUHU216HW,2013-02-02 08:56:00,
2013-02-02 01:01:00,32.9,20.2,30.14,SW,225,0.0,0.4,59,0.00,,,0.00,WUHU216HW,2013-02-02 09:01:00,
2013-02-02 01:07:00,32.8,20.4,30.14,SW,225,0.0,0.4,60,0.00,,,0.00,WUHU216HW,2013-02-02 09:07:00,
2013-02-02 01:12:00,32.6,19.9,30.14,SW,225,0.4,0.9,59,0.00,,,0.00,WUHU216HW,2013-02-02 09:12:00,
2013-02-02 01:17:00,32.6,19.9,30.14,SW,225,0.4,0.9,59,0.00,,,0.00,WUHU216HW,2013-02-02 09:17:00,
2013-02-02 01:22:00,32.4,19.7,30.14,SW,225,0.0,0.7,59,0.00,,,0.00,WUHU216HW,2013-02-02 09:22:00,
2013-02-02 01:27:00,32.4,19.7,30.14,SW,225,0.0,0.4,59,0.00,,,0.00,WUHU216HW,2013-02-02 09:27:00,
2013-02-02 01:32:00,32.4,19.7,30.14,SW,225,0.0,0.0,59,0.00,,,0.00,WUHU216HW,2013-02-02 09:32:00,
2013-02-02 01:37:00,32.2,19.5,30.15,SW,225,0.0,0.0,59,0.00,,,0.00,WUHU216HW,2013-02-02 09:37:00,
2013-02-02 01:42:00,32.0,19.4,30.15,SW,225,0.0,0.0,59,0.00,,,0.00,WUHU216HW,2013-02-02 09:42:00,
2013-02-02 01:47:00,32.0,19.4,30.15,SW,225,0.0,0.0,59,0.00,,,0.00,WUHU216HW,2013-02-02 09:47:00,
2013-02-02 01:52:00,32.0,19.4,30.15,SW,225,0.4,0.4,59,0.00,,,0.00,WUHU216HW,2013-02-02 09:52:00,
2013-02-02 01:57:00,32.0,19.4,30.15,ESE,113,0.3,0.9,59,0.00,,,0.00,WUHU216HW,2013-02-02 09:57:00,
2013-02-02 02:02:00,32.0,19.4,30.15,ESE,113,0.2,0.9,59,0.00,,,0.00,WUHU216HW,2013-02-02 10:02:00,
2013-02-02 02:07:00,32.0,19.4,30.15,ESE,113,0.0,0.4,59,0.00,,,0.00,WUHU216HW,2013-02-02 10:07:00,
2013-02-02 02:13:00,32.0,18.9,30.15,ESE,113,0.0,0.0,58,0.00,,,0.00,WUHU216HW,2013-02-02 10:13:00,
2013-02-02 02:18:00,32.2,18.6,30.15,ESE,113,0.0,0.0,57,0.00,,,0.00,WUHU216HW,2013-02-02 10:18:00,
2013-02-02 02:23:00,32.4,18.4,30.15,ESE,113,0.0,0.0,56,0.00,,,0.00,WUHU216HW,2013-02-02 10:23:00,
2013-02-02 02:28:00,32.6,18.5,30.15,ESE,113,0.4,0.4,56,0.00,,,0.00,WUHU216HW,2013-02-02 10:28:00,
2013-02-02 02:33:00,32.8,18.3,30.15,ESE,113,0.0,0.4,55,0.00,,,0.00,WUHU216HW,2013-02-02 10:33:00,
2013-02-02 02:38:00,32.8,18.3,30.15,ESE,113,0.0,0.2,55,0.00,,,0.00,WUHU216HW,2013-02-02 10:38:00,
2013-02-02 02:43:00,32.8,17.8,30.15,ESE,113,0.0,0.0,54,0.00,,,0.00,WUHU216HW,2013-02-02 10:43:00,
2013-02-02 02:48:00,32.9,18.0,30.15,ESE,113,0.2,0.2,54,0.00,,,0.00,WUHU216HW,2013-02-02 10:48:00,
2013-02-02 02:53:00,33.1,17.7,30.15,ESE,113,0.0,0.4,53,0.00,,,0.00,WUHU216HW,2013-02-02 10:53:00,
2013-02-02 02:58:00,33.3,17.0,30.15,ESE,113,0.0,0.4,51,0.00,,,0.00,WUHU216HW,2013-02-02 10:58:00,
2013-02-02 03:03:00,33.3,17.0,30.15,ESE,113,0.0,0.2,51,0.00,,,0.00,WUHU216HW,2013-02-02 11:03:00,
2013-02-02 03:08:00,33.5,16.7,30.15,ESE,113,0.0,0.0,50,0.00,,,0.00,WUHU216HW,2013-02-02 11:08:00,
2013-02-02 03:13:00,33.7,16.9,30.15,ESE,113,0.0,0.2,50,0.00,,,0.00,WUHU216HW,2013-02-02 11:13:00,
2013-02-02 03:18:00,33.7,16.9,30.14,ESE,113,0.4,0.4,50,0.00,,,0.00,WUHU216HW,2013-02-02 11:18:00,
2013-02-02 03:24:00,33.8,16.6,30.14,ESE,113,0.0,0.4,49,0.00,,,0.00,WUHU216HW,2013-02-02 11:24:00,
2013-02-02 03:29:00,33.8,16.1,30.14,ESE,113,0.0,0.0,48,0.00,,,0.00,WUHU216HW,2013-02-02 11:29:00,
2013-02-02 03:34:00,34.0,15.8,30.14,ESE,113,0.0,0.0,47,0.00,,,0.00,WUHU216HW,2013-02-02 11:34:00,
2013-02-02 03:39:00,34.0,15.3,30.14,ESE,113,0.0,0.0,46,0.00,,,0.00,WUHU216HW,2013-02-02 11:39:00,
2013-02-02 03:44:00,34.0,15.3,30.14,ESE,113,0.0,0.0,46,0.00,,,0.00,WUHU216HW,2013-02-02 11:44:00,
2013-02-02 03:49:00,34.0,15.3,30.14,ESE,113,0.0,0.0,46,0.00,,,0.00,WUHU216HW,2013-02-02 11:49:00,
2013-02-02 03:54:00,34.0,14.2,30.15,ESE,113,0.0,0.0,44,0.00,,,0.00,WUHU216HW,2013-02-02 11:54:00,
2013-02-02 03:59:00,34.2,14.4,30.14,ESE,113,0.0,0.0,44,0.00,,,0.00,WUHU216HW,2013-02-02 11:59:00,
2013-02-02 04:04:00,34.2,14.4,30.14,ESE,113,0.0,0.0,44,0.00,,,0.00,WUHU216HW,2013-02-02 12:04:00,
2013-02-02 04:09:00,34.2,12.4,30.15,ESE,113,0.4,0.4,40,0.00,,,0.00,WUHU216HW,2013-02-02 12:09:00,
2013-02-02 04:14:00,34.2,12.9,30.15,ESE,113,0.3,0.7,41,0.00,,,0.00,WUHU216HW,2013-02-02 12:14:00,
2013-02-02 04:19:00,34.2,12.4,30.15,ESE,113,0.4,0.7,40,0.00,,,0.00,WUHU216HW,2013-02-02 12:19:00,
2013-02-02 04:24:00,34.2,12.4,30.15,ESE,113,0.0,0.7,40,0.00,,,0.00,WUHU216HW,2013-02-02 12:24:00,
2013-02-02 04:30:00,34.4,13.1,30.15,ESE,113,0.0,0.2,41,0.00,,,0.00,WUHU216HW,2013-02-02 12:30:00,
2013-02-02 04:35:00,34.4,12.5,30.15,ESE,113,0.0,0.0,40,0.00,,,0.00,WUHU216HW,2013-02-02 12:35:00,
2013-02-02 04:40:00,34.6,12.1,30.14,ESE,113,0.0,0.0,39,0.01,,,0.01,WUHU216HW,2013-02-02 12:40:00,
2013-02-02 04:45:00,34.6,12.7,30.14,ESE,113,0.0,0.0,40,0.01,,,0.01,WUHU216HW,2013-02-02 12:45:00,
2013-02-02 04:50:00,34.7,12.9,30.14,ESE,113,0.0,0.0,40,0.01,,,0.01,WUHU216HW,2013-02-02 12:50:00,
2013-02-02 04:55:00,34.7,12.9,30.13,ESE,113,0.0,0.2,40,0.01,,,0.01,WUHU216HW,2013-02-02 12:55:00,
2013-02-02 05:00:00,34.9,13.1,30.14,ESE,113,0.4,0.4,40,0.01,,,0.01,WUHU216HW,2013-02-02 13:00:00,
2013-02-02 05:05:00,34.9,13.1,30.14,ESE,113,0.0,0.4,40,0.01,,,0.01,WUHU216HW,2013-02-02 13:05:00,
2013-02-02 05:10:00,34.9,13.1,30.14,ESE,113,0.4,0.4,40,0.01,,,0.01,WUHU216HW,2013-02-02 13:10:00,
2013-02-02 05:15:00,35.1,11.9,30.14,ESE,113,0.3,0.9,38,0.01,,,0.01,WUHU216HW,2013-02-02 13:15:00,
2013-02-02 05:20:00,34.9,7.9,30.14,ESE,113,0.3,0.9,32,0.01,,,0.01,WUHU216HW,2013-02-02 13:20:00,
2013-02-02 05:25:00,35.1,7.4,30.14,ESE,113,0.0,0.7,31,0.01,,,0.01,WUHU216HW,2013-02-02 13:25:00,
2013-02-02 05:30:00,35.1,7.4,30.14,ESE,113,0.0,0.0,31,0.01,,,0.01,WUHU216HW,2013-02-02 13:30:00,
2013-02-02 05:35:00,35.3,6.0,30.13,ESE,113,0.0,0.0,29,0.01,,,0.01,WUHU216HW,2013-02-02 13:35:00,
2013-02-02 05:40:00,35.1,3.3,30.13,ESE,113,0.4,0.4,26,0.00,,,0.01,WUHU216HW,2013-02-02 13:40:00,
2013-02-02 05:46:00,35.1,1.5,30.13,ESE,113,0.7,0.9,24,0.00,,,0.01,WUHU216HW,2013-02-02 13:46:00,
2013-02-02 05:51:00,35.1,0.7,30.14,West,270,1.1,1.1,23,0.00,,,0.01,WUHU216HW,2013-02-02 13:51:00,
2013-02-02 05:56:00,35.1,-0.2,30.14,WSW,248,1.1,1.6,22,0.00,,,0.01,WUHU216HW,2013-02-02 13:56:00,
2013-02-02 06:01:00,35.1,-1.1,30.13,WSW,248,1.1,1.6,21,0.00,,,0.01,WUHU216HW,2013-02-02 14:01:00,
2013-02-02 06:06:00,35.1,-1.9,30.14,WSW,248,0.9,1.1,20,0.00,,,0.01,WUHU216HW,2013-02-02 14:06:00,
2013-02-02 06:11:00,35.3,-1.8,30.14,WSW,248,0.5,1.1,20,0.00,,,0.01,WUHU216HW,2013-02-02 14:11:00,
2013-02-02 06:16:00,35.1,-1.9,30.14,WSW,248,0.3,0.7,20,0.00,,,0.01,WUHU216HW,2013-02-02 14:16:00,
2013-02-02 06:21:00,35.1,-1.9,30.14,WSW,248,0.7,0.7,20,0.00,,,0.01,WUHU216HW,2013-02-02 14:21:00,
2013-02-02 06:26:00,35.1,-4.8,30.14,WSW,248,0.4,0.7,18,0.00,,,0.01,WUHU216HW,2013-02-02 14:26:00,
2013-02-02 06:31:00,35.3,-6.0,30.14,WSW,248,0.7,0.9,17,0.00,,,0.01,WUHU216HW,2013-02-02 14:31:00,
2013-02-02 06:36:00,35.3,-6.0,30.14,WSW,248,0.0,0.9,17,0.00,,,0.01,WUHU216HW,2013-02-02 14:36:00,
2013-02-02 06:42:00,35.3,-6.0,30.14,WSW,248,0.0,0.0,17,0.00,,,0.01,WUHU216HW,2013-02-02 14:42:00,
2013-02-02 06:47:00,35.5,-4.4,30.15,WSW,248,0.0,0.0,18,0.00,,,0.01,WUHU216HW,2013-02-02 14:47:00,
2013-02-02 06:52:00,35.5,-4.4,30.14,WSW,248,0.4,0.4,18,0.00,,,0.01,WUHU216HW,2013-02-02 14:52:00,
2013-02-02 06:57:00,35.5,-3.1,30.14,WSW,248,0.0,0.4,19,0.00,,,0.01,WUHU216HW,2013-02-02 14:57:00,
2013-02-02 07:02:00,35.5,-1.6,30.14,WSW,248,0.0,0.4,20,0.00,,,0.01,WUHU216HW,2013-02-02 15:02:00,
2013-02-02 07:07:00,35.6,-2.9,30.14,WSW,248,0.6,0.7,19,0.00,,,0.01,WUHU216HW,2013-02-02 15:07:00,
2013-02-02 07:12:00,35.6,-4.3,30.15,WSW,248,0.4,0.7,18,0.00,,,0.01,WUHU216HW,2013-02-02 15:12:00,
2013-02-02 07:17:00,35.6,-2.9,30.15,WSW,248,0.0,0.4,19,0.00,,,0.01,WUHU216HW,2013-02-02 15:17:00,
2013-02-02 07:22:00,35.6,-1.4,30.15,WSW,248,0.0,0.2,20,0.00,,,0.01,WUHU216HW,2013-02-02 15:22:00,
2013-02-02 07:27:00,35.6,-0.5,30.15,WSW,248,0.0,0.0,21,0.00,,,0.01,WUHU216HW,2013-02-02 15:27:00,
2013-02-02 07:32:00,35.6,-0.5,30.15,WSW,248,0.0,0.0,21,0.00,,,0.01,WUHU216HW,2013-02-02 15:32:00,
2013-02-02 07:37:00,35.6,-0.5,30.15,WSW,248,0.0,0.0,21,0.00,,,0.01,WUHU216HW,2013-02-02 15:37:00,
2013-02-02 07:42:00,35.6,-0.5,30.15,WSW,248,0.0,0.0,21,0.00,,,0.01,WUHU216HW,2013-02-02 15:42:00,
2013-02-02 07:48:00,35.6,-0.5,30.15,WSW,248,0.3,0.4,21,0.00,,,0.01,WUHU216HW,2013-02-02 15:48:00,
2013-02-02 07:53:00,35.6,-0.5,30.15,WSW,248,0.0,0.4,21,0.00,,,0.01,WUHU216HW,2013-02-02 15:53:00,
2013-02-02 07:58:00,35.6,-1.4,30.16,WSW,248,0.0,0.4,20,0.00,,,0.01,WUHU216HW,2013-02-02 15:58:00,
2013-02-02 08:03:00,35.6,-1.4,30.16,WSW,248,0.3,0.4,20,0.00,,,0.01,WUHU216HW,2013-02-02 16:03:00,
2013-02-02 08:08:00,35.8,-1.2,30.16,NNE,23,0.5,0.7,20,0.00,,,0.01,WUHU216HW,2013-02-02 16:08:00,
2013-02-02 08:13:00,36.0,-1.2,30.17,NE,40,0.9,1.3,20,0.00,,,0.01,WUHU216HW,2013-02-02 16:13:00,
2013-02-02 08:18:00,36.0,-1.2,30.17,East,90,0.7,1.8,20,0.00,,,0.01,WUHU216HW,2013-02-02 16:18:00,
2013-02-02 08:23:00,36.0,-1.2,30.17,East,90,0.5,1.8,20,0.00,,,0.01,WUHU216HW,2013-02-02 16:23:00,
2013-02-02 08:28:00,36.0,-0.3,30.18,East,90,0.7,0.9,21,0.00,,,0.01,WUHU216HW,2013-02-02 16:28:00,
2013-02-02 08:33:00,36.0,-0.3,30.18,East,90,0.6,1.1,21,0.00,,,0.01,WUHU216HW,2013-02-02 16:33:00,
2013-02-02 08:38:00,36.2,-0.2,30.18,East,90,0.3,1.1,21,0.00,,,0.01,WUHU216HW,2013-02-02 16:38:00,
2013-02-02 08:43:00,36.4,0.0,30.18,East,90,0.3,0.7,21,0.00,,,0.01,WUHU216HW,2013-02-02 16:43:00,
2013-02-02 08:48:00,36.2,-1.0,30.18,East,90,0.4,1.3,20,0.00,,,0.01,WUHU216HW,2013-02-02 16:48:00,
2013-02-02 08:53:00,36.4,-3.7,30.18,East,90,0.9,1.3,18,0.00,,,0.01,WUHU216HW,2013-02-02 16:53:00,
2013-02-02 08:59:00,36.4,-6.6,30.18,SW,223,1.5,1.8,16,0.00,,,0.01,WUHU216HW,2013-02-02 16:59:00,
2013-02-02 09:04:00,36.4,-8.0,30.18,WSW,248,1.3,1.8,15,0.00,,,0.01,WUHU216HW,2013-02-02 17:04:00,
2013-02-02 09:09:00,36.4,-12.2,30.18,WSW,248,2.9,3.1,12,0.00,,,0.01,WUHU216HW,2013-02-02 17:09:00,
2013-02-02 09:14:00,36.2,-13.8,30.18,WSW,252,2.7,3.4,11,0.00,,,0.01,WUHU216HW,2013-02-02 17:14:00,
2013-02-02 09:19:00,36.4,-13.7,30.18,SSW,203,1.8,3.4,11,0.00,,,0.01,WUHU216HW,2013-02-02 17:19:00,
2013-02-02 09:24:00,36.5,-14.9,30.18,SW,225,0.4,2.7,10,0.00,,,0.01,WUHU216HW,2013-02-02 17:24:00,
2013-02-02 09:29:00,36.5,-14.9,30.18,WSW,242,0.4,1.8,10,0.00,,,0.01,WUHU216HW,2013-02-02 17:29:00,
2013-02-02 09:34:00,36.9,-14.7,30.18,South,183,0.7,1.1,9,0.00,,,0.01,WUHU216HW,2013-02-02 17:34:00,
2013-02-02 09:39:00,37.3,-14.4,30.18,SW,225,0.3,1.1,9,0.00,,,0.01,WUHU216HW,2013-02-02 17:39:00,
2013-02-02 09:44:00,37.3,-14.4,30.18,NNE,12,0.5,1.1,9,0.00,,,0.01,WUHU216HW,2013-02-02 17:44:00,
2013-02-02 09:50:00,37.6,-14.0,30.18,SW,225,1.6,1.6,7,0.00,,,0.01,WUHU216HW,2013-02-02 17:50:00,
2013-02-02 09:55:00,37.8,-13.9,30.19,WSW,248,0.0,1.8,7,0.00,,,0.01,WUHU216HW,2013-02-02 17:55:00,
2013-02-02 10:00:00,37.8,-13.9,30.18,SE,135,0.6,1.8,7,0.00,,,0.01,WUHU216HW,2013-02-02 18:00:00,
2013-02-02 10:05:00,38.0,-13.8,30.19,WSW,248,1.8,2.2,7,0.00,,,0.01,WUHU216HW,2013-02-02 18:05:00,
2013-02-02 10:10:00,38.2,-13.7,30.19,SW,235,0.5,2.2,7,0.00,,,0.01,WUHU216HW,2013-02-02 18:10:00,
2013-02-02 10:15:00,38.2,-13.7,30.19,SSE,163,1.8,2.2,6,0.00,,,0.01,WUHU216HW,2013-02-02 18:15:00,
2013-02-02 10:20:00,38.3,-13.5,30.19,WSW,248,2.7,2.9,6,0.00,,,0.01,WUHU216HW,2013-02-02 18:20:00,
2013-02-02 10:25:00,38.3,-13.5,30.19,WSW,244,1.2,2.9,6,0.00,,,0.01,WUHU216HW,2013-02-02 18:25:00,
2013-02-02 10:30:00,38.5,-13.3,30.19,SSW,203,0.4,2.7,5,0.00,,,0.01,WUHU216HW,2013-02-02 18:30:00,
2013-02-02 10:35:00,38.7,-13.2,30.19,West,260,1.2,1.8,5,0.00,,,0.01,WUHU216HW,2013-02-02 18:35:00,
2013-02-02 10:40:00,38.9,-13.0,30.19,WNW,293,1.3,1.8,5,0.00,,,0.01,WUHU216HW,2013-02-02 18:40:00,
2013-02-02 10:46:00,38.9,-13.0,30.19,SSE,158,0.7,1.8,5,0.00,,,0.01,WUHU216HW,2013-02-02 18:46:00,
2013-02-02 10:51:00,39.1,-13.0,30.19,WSW,248,1.6,1.6,3,0.00,,,0.01,WUHU216HW,2013-02-02 18:51:00,
2013-02-02 10:56:00,39.2,-12.8,30.20,WSW,248,0.0,2.0,3,0.00,,,0.01,WUHU216HW,2013-02-02 18:56:00,
2013-02-02 11:01:00,39.6,-12.5,30.19,South,174,0.6,3.1,2,0.00,,,0.01,WUHU216HW,2013-02-02 19:01:00,
2013-02-02 11:06:00,39.8,-12.3,30.19,WSW,248,1.1,3.1,2,0.00,,,0.01,WUHU216HW,2013-02-02 19:06:00,
2013-02-02 11:11:00,39.8,-12.3,30.19,SW,233,1.0,2.2,2,0.00,,,0.01,WUHU216HW,2013-02-02 19:11:00,
2013-02-02 11:16:00,40.0,-12.2,30.19,ESE,113,0.4,2.2,1,0.00,,,0.01,WUHU216HW,2013-02-02 19:16:00,
2013-02-02 11:21:00,40.1,-12.1,30.19,ESE,113,0.6,1.1,1,0.00,,,0.01,WUHU216HW,2013-02-02 19:21:00,
2013-02-02 11:26:00,40.3,-11.9,30.19,WSW,239,1.3,2.2,1,0.00,,,0.01,WUHU216HW,2013-02-02 19:26:00,
2013-02-02 11:31:00,40.3,-11.9,30.19,WSW,248,1.8,2.5,1,0.00,,,0.01,WUHU216HW,2013-02-02 19:31:00,
2013-02-02 11:36:00,40.3,-11.9,30.19,SSE,166,1.4,2.5,1,0.00,,,0.01,WUHU216HW,2013-02-02 19:36:00,
2013-02-02 11:42:00,40.5,-11.8,30.19,ESE,113,1.6,1.8,1,0.00,,,0.01,WUHU216HW,2013-02-02 19:42:00,
2013-02-02 11:47:00,40.7,-11.6,30.19,SE,127,1.3,2.2,1,0.00,,,0.01,WUHU216HW,2013-02-02 19:47:00,
2013-02-02 11:52:00,40.7,-11.6,30.19,South,180,2.5,2.9,1,0.00,,,0.01,WUHU216HW,2013-02-02 19:52:00,
2013-02-02 11:57:00,41.0,-11.3,30.19,SSW,198,1.3,4.0,1,0.00,,,0.01,WUHU216HW,2013-02-02 19:57:00,
2013-02-02 12:02:00,41.2,-11.2,30.18,SSW,203,0.0,4.0,1,0.00,,,0.01,WUHU216HW,2013-02-02 20:02:00,
2013-02-02 12:07:00,41.0,-11.3,30.19,SSE,158,0.4,1.1,1,0.00,,,0.01,WUHU216HW,2013-02-02 20:07:00,
2013-02-02 12:12:00,41.2,-11.2,30.18,WSW,240,1.9,2.5,1,0.00,,,0.01,WUHU216HW,2013-02-02 20:12:00,
2013-02-02 12:17:00,41.0,-11.3,30.18,WSW,248,1.3,2.9,2,0.00,,,0.01,WUHU216HW,2013-02-02 20:17:00,
2013-02-02 12:22:00,40.9,-11.5,30.18,WSW,240,1.1,2.9,5,0.00,,,0.01,WUHU216HW,2013-02-02 20:22:00,
2013-02-02 12:27:00,41.0,-11.3,30.18,ENE,68,1.3,2.5,5,0.00,,,0.01,WUHU216HW,2013-02-02 20:27:00,
2013-02-02 12:32:00,41.4,-11.1,30.18,SSE,158,1.8,2.5,4,0.00,,,0.01,WUHU216HW,2013-02-02 20:32:00,
2013-02-02 12:37:00,41.4,-11.1,30.18,WSW,256,0.3,1.8,5,0.00,,,0.01,WUHU216HW,2013-02-02 20:37:00,
2013-02-02 12:42:00,41.4,-11.1,30.18,NW,315,0.3,2.0,5,0.00,,,0.01,WUHU216HW,2013-02-02 20:42:00,
2013-02-02 12:48:00,41.6,-11.0,30.17,SW,225,0.3,2.0,5,0.00,,,0.01,WUHU216HW,2013-02-02 20:48:00,
2013-02-02 12:53:00,41.6,-11.0,30.17,SW,225,1.8,1.8,5,0.00,,,0.01,WUHU216HW,2013-02-02 20:53:00,
2013-02-02 12:58:00,41.9,-10.7,30.17,SW,217,1.3,2.2,5,0.00,,,0.01,WUHU216HW,2013-02-02 20:58:00,
2013-02-02 13:03:00,41.8,-9.3,30.17,WNW,293,1.3,2.2,11,0.00,,,0.01,WUHU216HW,2013-02-02 21:03:00,
2013-02-02 13:08:00,41.6,-11.0,30.17,NNW,346,0.3,1.8,10,0.00,,,0.01,WUHU216HW,2013-02-02 21:08:00,
2013-02-02 13:13:00,41.8,-10.8,30.17,NNE,23,0.8,1.8,9,0.00,,,0.01,WUHU216HW,2013-02-02 21:13:00,
2013-02-02 13:18:00,41.9,-10.7,30.16,NNE,32,1.0,1.8,9,0.00,,,0.01,WUHU216HW,2013-02-02 21:18:00,
2013-02-02 13:23:00,42.3,-10.4,30.16,SW,225,1.6,2.0,7,0.00,,,0.01,WUHU216HW,2013-02-02 21:23:00,
2013-02-02 13:28:00,42.5,-10.3,30.16,SE,135,1.3,3.1,9,0.00,,,0.01,WUHU216HW,2013-02-02 21:28:00,
2013-02-02 13:33:00,42.5,-10.3,30.16,East,90,0.5,3.1,10,0.00,,,0.01,WUHU216HW,2013-02-02 21:33:00,
2013-02-02 13:38:00,42.1,6.7,30.16,West,270,1.6,2.0,23,0.00,,,0.01,WUHU216HW,2013-02-02 21:38:00,
2013-02-02 13:43:00,42.1,4.9,30.16,WSW,248,1.1,2.0,21,0.00,,,0.01,WUHU216HW,2013-02-02 21:43:00,
2013-02-02 13:48:00,42.1,5.8,30.16,SW,235,2.8,2.9,22,0.00,,,0.01,WUHU216HW,2013-02-02 21:48:00,
2013-02-02 13:54:00,42.1,5.8,30.16,WSW,248,1.8,2.9,22,0.00,,,0.01,WUHU216HW,2013-02-02 21:54:00,
2013-02-02 13:59:00,42.3,5.9,30.16,SW,233,1.2,2.5,22,0.00,,,0.01,WUHU216HW,2013-02-02 21:59:00,
2013-02-02 14:04:00,42.3,4.1,30.16,SSW,203,1.6,1.8,20,0.00,,,0.01,WUHU216HW,2013-02-02 22:04:00,
2013-02-02 14:09:00,42.8,0.1,30.16,SE,135,1.1,2.2,17,0.00,,,0.01,WUHU216HW,2013-02-02 22:09:00,
2013-02-02 14:14:00,43.0,-1.2,30.16,ENE,68,1.1,2.2,16,0.00,,,0.01,WUHU216HW,2013-02-02 22:14:00,
2013-02-02 14:19:00,43.2,1.9,30.16,ENE,68,1.8,2.0,18,0.00,,,0.01,WUHU216HW,2013-02-02 22:19:00,
2013-02-02 14:24:00,43.2,5.8,30.16,South,190,1.5,2.5,21,0.00,,,0.01,WUHU216HW,2013-02-02 22:24:00,
2013-02-02 14:29:00,43.2,7.6,30.16,SSE,158,1.3,2.5,23,0.00,,,0.01,WUHU216HW,2013-02-02 22:29:00,
2013-02-02 14:34:00,43.4,6.8,30.16,SSE,152,0.9,3.8,22,0.00,,,0.01,WUHU216HW,2013-02-02 22:34:00,
2013-02-02 14:39:00,43.6,8.7,30.16,SSE,147,1.0,3.8,24,0.00,,,0.01,WUHU216HW,2013-02-02 22:39:00,
2013-02-02 14:45:00,43.6,8.7,30.16,SE,135,1.8,3.6,24,0.00,,,0.01,WUHU216HW,2013-02-02 22:45:00,
2013-02-02 14:50:00,43.6,9.6,30.16,South,186,0.8,2.2,25,0.00,,,0.01,WUHU216HW,2013-02-02 22:50:00,
2013-02-02 14:55:00,43.6,14.1,30.16,ESE,113,0.4,1.8,30,0.00,,,0.01,WUHU216HW,2013-02-02 22:55:00,
2013-02-02 15:00:00,43.6,15.5,30.16,SW,223,1.5,2.0,32,0.00,,,0.01,WUHU216HW,2013-02-02 23:00:00,
2013-02-02 15:05:00,43.6,15.5,30.16,South,180,0.6,2.2,32,0.00,,,0.01,WUHU216HW,2013-02-02 23:05:00,
2013-02-02 15:10:00,43.4,17.3,30.16,ESE,113,0.9,2.2,35,0.00,,,0.01,WUHU216HW,2013-02-02 23:10:00,
2013-02-02 15:15:00,43.4,18.6,30.17,ESE,113,0.6,1.3,37,0.00,,,0.01,WUHU216HW,2013-02-02 23:15:00,
2013-02-02 15:20:00,43.4,19.4,30.17,ESE,113,0.4,1.3,38,0.00,,,0.01,WUHU216HW,2013-02-02 23:20:00,
2013-02-02 15:25:00,43.2,20.5,30.17,ESE,113,0.7,0.9,40,0.00,,,0.01,WUHU216HW,2013-02-02 23:25:00,
2013-02-02 15:30:00,43.2,22.2,30.16,WNW,293,1.1,1.1,43,0.00,,,0.01,WUHU216HW,2013-02-02 23:30:00,
2013-02-02 15:35:00,42.8,22.9,30.16,WNW,293,0.4,1.1,45,0.00,,,0.01,WUHU216HW,2013-02-02 23:35:00,
2013-02-02 15:41:00,43.0,22.0,30.16,NNW,338,0.2,0.9,43,0.00,,,0.01,WUHU216HW,2013-02-02 23:41:00,
2013-02-02 15:46:00,43.0,22.5,30.16,NNW,338,0.7,1.1,44,0.00,,,0.01,WUHU216HW,2013-02-02 23:46:00,
2013-02-02 15:51:00,42.7,25.8,30.16,NW,315,0.8,1.1,51,0.00,,,0.01,WUHU216HW,2013-02-02 23:51:00,
2013-02-02 15:56:00,42.7,23.8,30.16,West,270,0.9,1.1,47,0.00,,,0.01,WUHU216HW,2013-02-02 23:56:00,
2013-02-02 16:01:00,42.7,23.2,30.16,SW,225,0.5,0.9,46,0.00,,,0.01,WUHU216HW,2013-02-03 00:01:00,
2013-02-02 16:06:00,42.8,22.9,30.16,SW,225,0.9,0.9,45,0.00,,,0.01,WUHU216HW,2013-02-03 00:06:00,
2013-02-02 16:11:00,42.8,26.5,30.15,WSW,255,1.3,1.6,52,0.00,,,0.01,WUHU216HW,2013-02-03 00:11:00,
2013-02-02 16:16:00,42.5,25.7,30.15,WSW,248,0.4,1.6,51,0.00,,,0.01,WUHU216HW,2013-02-03 00:16:00,
2013-02-02 16:21:00,42.5,24.7,30.16,SSW,203,1.6,1.8,49,0.00,,,0.01,WUHU216HW,2013-02-03 00:21:00,
2013-02-02 16:26:00,42.7,23.8,30.16,SW,225,1.6,2.5,47,0.00,,,0.01,WUHU216HW,2013-02-03 00:26:00,
2013-02-02 16:31:00,42.8,22.9,30.16,SSW,203,0.4,2.5,45,0.00,,,0.01,WUHU216HW,2013-02-03 00:31:00,
2013-02-02 16:36:00,42.8,24.5,30.15,WSW,245,1.8,2.0,48,0.00,,,0.01,WUHU216HW,2013-02-03 00:36:00,
2013-02-02 16:41:00,42.8,25.0,30.15,WSW,249,1.3,2.0,49,0.00,,,0.01,WUHU216HW,2013-02-03 00:41:00,
2013-02-02 16:47:00,42.7,25.8,30.15,West,270,2.0,2.0,51,0.00,,,0.01,WUHU216HW,2013-02-03 00:47:00,
2013-02-02 16:52:00,42.3,25.5,30.15,West,270,0.3,2.5,51,0.00,,,0.01,WUHU216HW,2013-02-03 00:52:00,
2013-02-02 16:57:00,42.3,24.5,30.15,WSW,248,1.3,2.5,49,0.00,,,0.01,WUHU216HW,2013-02-03 00:57:00,
2013-02-02 17:02:00,42.3,24.5,30.15,WSW,255,0.7,1.3,49,0.00,,,0.01,WUHU216HW,2013-02-03 01:02:00,
2013-02-02 17:07:00,42.1,24.3,30.15,SW,225,1.5,1.8,49,0.00,,,0.01,WUHU216HW,2013-02-03 01:07:00,
2013-02-02 17:12:00,42.1,23.2,30.15,WSW,248,1.2,1.8,47,0.00,,,0.01,WUHU216HW,2013-02-03 01:12:00,
2013-02-02 17:17:00,42.1,22.7,30.15,SW,225,0.6,1.6,46,0.00,,,0.01,WUHU216HW,2013-02-03 01:17:00,
2013-02-02 17:22:00,42.1,22.1,30.15,SW,225,0.0,1.1,45,0.00,,,0.01,WUHU216HW,2013-02-03 01:22:00,
2013-02-02 17:27:00,42.1,22.1,30.15,SW,225,0.0,0.7,45,0.00,,,0.01,WUHU216HW,2013-02-03 01:27:00,
2013-02-02 17:32:00,42.1,21.6,30.15,SW,225,0.0,0.4,44,0.00,,,0.01,WUHU216HW,2013-02-03 01:32:00,
2013-02-02 17:37:00,42.1,22.1,30.15,SW,225,0.0,0.0,45,0.00,,,0.01,WUHU216HW,2013-02-03 01:37:00,
2013-02-02 17:42:00,42.1,22.1,30.15,ESE,113,0.4,0.7,45,0.00,,,0.01,WUHU216HW,2013-02-03 01:42:00,
2013-02-02 17:47:00,42.1,22.1,30.15,ESE,113,0.7,0.7,45,0.00,,,0.01,WUHU216HW,2013-02-03 01:47:00,
2013-02-02 17:53:00,41.9,22.0,30.15,ESE,113,0.0,0.7,45,0.00,,,0.01,WUHU216HW,2013-02-03 01:53:00,
2013-02-02 17:58:00,41.9,22.0,30.15,ESE,113,0.0,0.7,45,0.00,,,0.01,WUHU216HW,2013-02-03 01:58:00,
2013-02-02 18:03:00,41.8,21.9,30.14,ESE,113,0.2,0.4,45,0.00,,,0.01,WUHU216HW,2013-02-03 02:03:00,
2013-02-02 18:08:00,41.6,21.7,30.14,ESE,113,0.9,0.9,45,0.00,,,0.01,WUHU216HW,2013-02-03 02:08:00,
2013-02-02 18:13:00,41.4,21.5,30.14,SW,225,0.9,1.3,45,0.00,,,0.01,WUHU216HW,2013-02-03 02:13:00,
2013-02-02 18:18:00,41.4,21.0,30.15,WSW,248,1.1,1.3,44,0.00,,,0.01,WUHU216HW,2013-02-03 02:18:00,
2013-02-02 18:23:00,41.4,20.4,30.14,SSW,203,0.9,1.3,43,0.00,,,0.01,WUHU216HW,2013-02-03 02:23:00,
2013-02-02 18:28:00,41.4,18.9,30.14,WSW,248,2.2,2.2,40,0.00,,,0.01,WUHU216HW,2013-02-03 02:28:00,
2013-02-02 18:33:00,41.0,15.9,30.15,WSW,248,2.2,3.4,36,0.00,,,0.01,WUHU216HW,2013-02-03 02:33:00,
2013-02-02 18:38:00,41.0,15.9,30.14,WSW,248,2.2,3.4,36,0.00,,,0.01,WUHU216HW,2013-02-03 02:38:00,
2013-02-02 18:43:00,41.0,13.3,30.14,SW,223,1.6,2.7,32,0.00,,,0.01,WUHU216HW,2013-02-03 02:43:00,
2013-02-02 18:48:00,40.9,11.0,30.14,West,269,1.2,2.7,29,0.00,,,0.01,WUHU216HW,2013-02-03 02:48:00,
2013-02-02 18:54:00,40.9,11.9,30.15,SW,219,0.9,2.5,30,0.00,,,0.01,WUHU216HW,2013-02-03 02:54:00,
2013-02-02 18:59:00,40.9,12.5,30.15,NNW,338,1.1,2.2,31,0.00,,,0.01,WUHU216HW,2013-02-03 02:59:00,
2013-02-02 19:04:00,40.7,11.7,30.15,WSW,248,0.8,2.0,30,0.00,,,0.01,WUHU216HW,2013-02-03 03:04:00,
2013-02-02 19:09:00,40.7,10.8,30.15,WSW,248,0.0,1.6,29,0.00,,,0.01,WUHU216HW,2013-02-03 03:09:00,
2013-02-02 19:14:00,40.7,9.0,30.15,West,272,1.1,1.8,27,0.00,,,0.01,WUHU216HW,2013-02-03 03:14:00,
2013-02-02 19:19:00,40.7,8.1,30.15,WSW,248,0.4,1.8,26,0.00,,,0.01,WUHU216HW,2013-02-03 03:19:00,
2013-02-02 19:24:00,40.5,7.1,30.15,WSW,248,0.9,1.1,25,0.00,,,0.01,WUHU216HW,2013-02-03 03:24:00,
2013-02-02 19:29:00,40.7,9.0,30.14,South,174,0.7,1.3,27,0.00,,,0.01,WUHU216HW,2013-02-03 03:29:00,
2013-02-02 19:34:00,40.7,9.0,30.14,SE,135,0.2,1.3,27,0.00,,,0.01,WUHU216HW,2013-02-03 03:34:00,
2013-02-02 19:39:00,40.7,9.9,30.14,SE,135,0.0,1.1,28,0.00,,,0.01,WUHU216HW,2013-02-03 03:39:00,
2013-02-02 19:44:00,40.7,9.0,30.14,SSW,195,1.5,2.0,27,0.00,,,0.01,WUHU216HW,2013-02-03 03:44:00,
2013-02-02 19:49:00,40.7,9.0,30.14,SSW,203,0.4,2.0,27,0.00,,,0.01,WUHU216HW,2013-02-03 03:49:00,
2013-02-02 19:55:00,40.7,7.2,30.14,WSW,248,2.5,2.5,25,0.00,,,0.01,WUHU216HW,2013-02-03 03:55:00,
2013-02-02 20:00:00,40.3,3.3,30.14,SW,226,1.1,2.5,21,0.00,,,0.01,WUHU216HW,2013-02-03 04:00:00,
2013-02-02 20:05:00,40.1,2.3,30.14,NW,315,0.5,2.0,20,0.00,,,0.01,WUHU216HW,2013-02-03 04:05:00,
2013-02-02 20:10:00,40.1,-2.1,30.15,NW,315,2.5,2.7,17,0.00,,,0.01,WUHU216HW,2013-02-03 04:10:00,
2013-02-02 20:15:00,40.0,-12.2,30.15,West,270,2.0,2.7,10,0.00,,,0.01,WUHU216HW,2013-02-03 04:15:00,
2013-02-02 20:20:00,40.0,-12.2,30.15,West,270,3.6,3.6,7,0.00,,,0.01,WUHU216HW,2013-02-03 04:20:00,
2013-02-02 20:25:00,40.0,-12.2,30.15,SW,219,1.6,3.6,6,0.00,,,0.01,WUHU216HW,2013-02-03 04:25:00,
2013-02-02 20:30:00,40.0,-12.2,30.14,SW,224,0.5,3.4,6,0.00,,,0.01,WUHU216HW,2013-02-03 04:30:00,
2013-02-02 20:35:00,40.0,-12.2,30.14,West,270,1.8,2.0,7,0.00,,,0.01,WUHU216HW,2013-02-03 04:35:00,
2013-02-02 20:40:00,39.6,-12.5,30.15,SW,225,0.9,2.2,7,0.00,,,0.01,WUHU216HW,2013-02-03 04:40:00,
2013-02-02 20:45:00,39.6,-12.5,30.14,SSW,195,0.7,2.2,7,0.00,,,0.01,WUHU216HW,2013-02-03 04:45:00,
2013-02-02 20:51:00,39.8,-12.3,30.14,South,180,0.4,1.6,7,0.00,,,0.01,WUHU216HW,2013-02-03 04:51:00,
2013-02-02 20:56:00,39.4,-12.6,30.14,SW,225,0.6,1.1,10,0.00,,,0.01,WUHU216HW,2013-02-03 04:56:00,
2013-02-02 21:00:00,39.2,-11.3,30.14,SW,225,0.0,1.1,11,0.00,,,0.01,WUHU216HW,2013-02-03 05:00:00,
2013-02-02 21:01:00,39.2,-11.3,30.14,SW,225,0.0,1.1,11,0.00,,,0.01,WUHU216HW,2013-02-03 05:01:00,
2013-02-02 21:04:00,39.2,-11.3,30.14,SW,225,0.0,0.9,11,0.00,,,0.01,WUHU216HW,2013-02-03 05:04:00,
2013-02-02 21:09:00,39.2,-7.1,30.14,SW,225,0.0,0.4,14,0.00,,,0.01,WUHU216HW,2013-02-03 05:09:00,
2013-02-02 21:14:00,38.9,-5.9,30.14,East,90,0.9,1.1,15,0.00,,,0.01,WUHU216HW,2013-02-03 05:14:00,
2013-02-02 21:19:00,38.9,-5.9,30.14,East,90,1.6,1.6,15,0.00,,,0.01,WUHU216HW,2013-02-03 05:19:00,
2013-02-02 21:24:00,38.7,-3.2,30.14,ESE,106,1.9,2.5,17,0.00,,,0.01,WUHU216HW,2013-02-03 05:24:00,
2013-02-02 21:29:00,38.5,-3.4,30.13,East,90,0.3,2.5,17,0.00,,,0.01,WUHU216HW,2013-02-03 05:29:00,
2013-02-02 21:34:00,38.3,0.7,30.14,East,90,0.0,1.1,20,0.00,,,0.01,WUHU216HW,2013-02-03 05:34:00,
2013-02-02 21:39:00,38.0,0.5,30.15,East,90,0.7,1.1,20,0.00,,,0.01,WUHU216HW,2013-02-03 05:39:00,
2013-02-02 21:44:00,38.0,0.5,30.15,East,90,0.0,1.1,20,0.00,,,0.01,WUHU216HW,2013-02-03 05:44:00,
2013-02-02 21:49:00,38.0,-2.4,30.15,East,90,0.0,0.7,18,0.00,,,0.01,WUHU216HW,2013-02-03 05:49:00,
2013-02-02 21:54:00,38.2,-2.2,30.15,East,90,1.1,1.1,18,0.00,,,0.01,WUHU216HW,2013-02-03 05:54:00,
2013-02-02 21:59:00,38.3,-2.2,30.14,East,90,1.3,1.3,18,0.00,,,0.01,WUHU216HW,2013-02-03 05:59:00,
2013-02-02 22:04:00,38.3,-3.5,30.14,East,90,0.0,1.3,17,0.00,,,0.01,WUHU216HW,2013-02-03 06:04:00,
2013-02-02 22:10:00,38.3,-6.4,30.15,East,90,0.7,1.1,15,0.00,,,0.01,WUHU216HW,2013-02-03 06:10:00,
2013-02-02 22:15:00,38.3,-7.8,30.15,WNW,293,0.2,1.1,14,0.00,,,0.01,WUHU216HW,2013-02-03 06:15:00,
2013-02-02 22:20:00,38.3,-6.4,30.15,WNW,293,0.0,0.9,15,0.00,,,0.01,WUHU216HW,2013-02-03 06:20:00,
2013-02-02 22:25:00,38.3,-6.4,30.15,WNW,293,0.0,0.4,15,0.00,,,0.01,WUHU216HW,2013-02-03 06:25:00,
2013-02-02 22:30:00,38.3,-6.4,30.15,WNW,293,0.2,0.4,15,0.00,,,0.01,WUHU216HW,2013-02-03 06:30:00,
2013-02-02 22:35:00,38.3,-6.4,30.15,WNW,293,0.0,0.4,15,0.00,,,0.01,WUHU216HW,2013-02-03 06:35:00,
2013-02-02 22:40:00,38.5,-6.2,30.15,WNW,293,0.0,0.0,15,0.00,,,0.01,WUHU216HW,2013-02-03 06:40:00,
2013-02-02 22:45:00,38.3,-6.4,30.15,WNW,293,0.2,0.2,15,0.00,,,0.01,WUHU216HW,2013-02-03 06:45:00,
2013-02-02 22:50:00,38.2,-6.6,30.16,WNW,293,0.0,0.2,15,0.00,,,0.01,WUHU216HW,2013-02-03 06:50:00,
2013-02-02 22:55:00,38.2,-5.1,30.16,North,0,0.7,0.7,16,0.00,,,0.01,WUHU216HW,2013-02-03 06:55:00,
2013-02-02 23:00:00,38.0,-5.2,30.17,North,0,0.0,0.7,16,0.00,,,0.01,WUHU216HW,2013-02-03 07:00:00,
2013-02-02 23:05:00,38.0,-5.2,30.17,North,0,0.0,0.4,16,0.00,,,0.01,WUHU216HW,2013-02-03 07:05:00,
2013-02-02 23:10:00,37.8,-3.9,30.17,NE,45,0.7,0.9,17,0.00,,,0.01,WUHU216HW,2013-02-03 07:10:00,
2013-02-02 23:15:00,37.8,-2.5,30.17,NE,45,0.2,0.9,18,0.00,,,0.01,WUHU216HW,2013-02-03 07:15:00,
2013-02-02 23:21:00,37.6,-2.7,30.17,NE,45,0.9,1.3,18,0.00,,,0.01,WUHU216HW,2013-02-03 07:21:00,
2013-02-02 23:26:00,37.4,0.0,30.17,NE,45,0.6,1.3,20,0.00,,,0.01,WUHU216HW,2013-02-03 07:26:00,
2013-02-02 23:31:00,37.1,0.6,30.18,NE,45,1.1,1.3,21,0.00,,,0.01,WUHU216HW,2013-02-03 07:31:00,
2013-02-02 23:36:00,37.1,0.6,30.18,East,90,3.8,3.8,21,0.00,,,0.01,WUHU216HW,2013-02-03 07:36:00,
2013-02-02 23:41:00,36.9,0.5,30.17,ENE,68,1.8,3.8,21,0.00,,,0.01,WUHU216HW,2013-02-03 07:41:00,
2013-02-02 23:46:00,36.7,0.3,30.17,ENE,68,2.0,4.0,21,0.00,,,0.01,WUHU216HW,2013-02-03 07:46:00,
2013-02-02 23:51:00,36.9,0.5,30.17,East,81,1.7,4.0,21,0.00,,,0.01,WUHU216HW,2013-02-03 07:51:00,
2013-02-02 23:56:00,36.9,-0.4,30.17,East,90,2.5,4.0,20,0.00,,,0.01,WUHU216HW,2013-02-03 07:56:00,